Tuesday, January 16, 2018, 5:13 PM GMT
Back to Local

CWNQ, Nicolet Automatic Weather Reporting System

Location: , , Canada Lat: 46.217
Local Time: 5:13 PM GMT (17:13 GMT) Lon: -72.65
Time Zone: GMT Elev: 32 ft

Show me the last for .
Show Coded

Time T Td Feel RH Dir Speed Gust Alt SLP Vis Weather Sky Remarks
2018-01-16 16:00 10 4 0 78 40° 6 - - 30.46 0 None
2018-01-16 15:00 9 4 -3 80 40° 7 - - 30.48 0 None
2018-01-16 14:00 10 3 -2 73 60° 7 - - 30.48 0 None
2018-01-16 13:00 8 3 -5 81 60° 8 - - 30.47 0 None
2018-01-16 12:00 8 3 -4 80 50° 7 - - 30.48 0 None
2018-01-16 11:00 8 4 -5 84 60° 8 - - 30.48 0 None
2018-01-16 10:00 8 2 -6 77 50° 9 - - 30.48 0 None
2018-01-16 09:00 8 2 -7 76 50° 10 - - 30.49 0 None
2018-01-16 08:00 6 1 -5 77 50° 7 - - 30.52 0 None
2018-01-16 07:00 6 1 -8 77 60° 9 - - 30.54 0 None
2018-01-16 06:00 5 -1 -10 78 50° 9 - - 30.54 0 None
2018-01-16 05:00 5 -1 -10 77 50° 9 - - 30.57 0 None
2018-01-16 03:00 4 -2 -10 76 50° 8 - - 30.63 0 None
2018-01-16 02:00 3 -2 -10 78 50° 8 - - 30.64 0 None
2018-01-16 01:00 3 -3 -12 78 50° 9 - - 30.66 0 None
2018-01-16 00:00 3 -2 -10 78 50° 7 - - 30.70 0 None
2018-01-15 23:00 3 -3 -8 75 50° 6 - - 30.70 0 None
2018-01-15 22:00 6 -3 -6 66 50° 7 - - 30.71 0 None
2018-01-15 21:00 6 -3 -7 66 50° 8 - - 30.72 0 None
2018-01-15 20:00 6 -3 -14 66 50° 9 18 - 30.74 0 None
2018-01-15 19:00 5 -2 -9 71 40° 9 - - 30.75 0 None
2018-01-15 18:00 3 -1 -13 83 50° 10 - - 30.78 0 None

Support USWX by starting your Amazon purchase here.